createdAt,value
2022-09-12T00:00:31.783Z,36.69
2022-09-12T00:01:33.628Z,37.11
2022-09-12T00:02:35.165Z,36.98
2022-09-12T00:03:37.543Z,36.94
2022-09-12T00:04:39.155Z,36.92
2022-09-12T00:05:45.841Z,36.91
2022-09-12T00:06:47.458Z,36.74
2022-09-12T00:07:49.644Z,36.83
2022-09-12T00:08:54.250Z,36.55
2022-09-12T00:09:55.877Z,36.50
2022-09-12T00:10:57.457Z,36.78
2022-09-12T00:11:58.996Z,36.48
2022-09-12T00:13:00.503Z,36.28
2022-09-12T00:14:02.349Z,36.69
2022-09-12T00:15:05.037Z,36.71
2022-09-12T00:16:07.162Z,37.10
2022-09-12T00:17:08.830Z,36.68
2022-09-12T00:18:15.790Z,36.85
2022-09-12T00:19:18.758Z,36.66
2022-09-12T00:20:20.323Z,36.69
2022-09-12T00:21:22.952Z,37.11
2022-09-12T00:22:24.485Z,36.78
2022-09-12T00:23:26.099Z,36.73
2022-09-12T00:24:27.726Z,36.75
2022-09-12T00:25:30.723Z,36.98
2022-09-12T00:26:32.593Z,36.71
2022-09-12T00:27:34.140Z,37.00
2022-09-12T00:28:37.377Z,36.81
2022-09-12T00:29:38.941Z,36.55
2022-09-12T00:30:45.600Z,36.85
2022-09-12T00:31:47.265Z,37.04
2022-09-12T00:32:50.429Z,36.66
2022-09-12T00:33:55.151Z,36.81
2022-09-12T00:34:56.751Z,37.00
2022-09-12T00:35:58.330Z,36.62
2022-09-12T00:36:59.975Z,36.53
2022-09-12T00:38:01.523Z,36.97
2022-09-12T00:39:03.956Z,36.49
2022-09-12T00:40:05.976Z,36.60
2022-09-12T00:41:11.702Z,36.71
2022-09-12T00:42:13.501Z,36.57
2022-09-12T00:43:30.232Z,36.54
2022-09-12T00:44:31.727Z,36.29
2022-09-12T00:45:33.457Z,36.64
2022-09-12T00:46:40.287Z,36.66
2022-09-12T00:47:43.417Z,36.44
2022-09-12T00:48:59.359Z,36.46
2022-09-12T00:50:09.472Z,36.38
2022-09-12T00:51:11.788Z,36.84
2022-09-12T00:52:47.088Z,36.56
2022-09-12T00:53:51.633Z,36.40
2022-09-12T00:55:02.203Z,36.44
2022-09-12T00:56:03.886Z,36.47
2022-09-12T00:57:09.585Z,36.47
2022-09-12T00:58:19.829Z,36.40
2022-09-12T00:59:27.569Z,36.76
2022-09-12T01:00:29.562Z,36.43
2022-09-12T01:01:32.711Z,36.37
2022-09-12T01:02:35.064Z,36.75
2022-09-12T01:03:36.707Z,36.67
2022-09-12T01:04:41.133Z,36.38
2022-09-12T01:05:53.118Z,36.50
2022-09-12T01:06:57.605Z,36.34
2022-09-12T01:08:02.473Z,36.38
2022-09-12T01:09:05.107Z,36.66
2022-09-12T01:10:09.538Z,36.57
2022-09-12T01:11:13.217Z,36.53
2022-09-12T01:12:16.002Z,36.54
2022-09-12T01:13:17.898Z,36.28
2022-09-12T01:14:20.557Z,36.60
2022-09-12T01:15:23.175Z,36.38
2022-09-12T01:16:24.751Z,36.51
2022-09-12T01:17:52.777Z,36.72
2022-09-12T01:19:12.876Z,36.40
2022-09-12T01:20:38.197Z,36.80
2022-09-12T01:21:59.020Z,36.75
2022-09-12T01:23:17.738Z,36.71
2022-09-12T01:24:35.007Z,36.52
2022-09-12T01:25:45.681Z,36.55
2022-09-12T01:26:53.078Z,36.95
2022-09-12T01:28:06.856Z,36.60
2022-09-12T01:29:39.268Z,36.71
2022-09-12T01:30:45.515Z,36.77
2022-09-12T01:32:15.551Z,36.68
2022-09-12T01:33:35.467Z,36.29
2022-09-12T01:34:49.499Z,36.53
2022-09-12T01:36:08.808Z,36.91
2022-09-12T01:37:28.532Z,36.90
2022-09-12T01:39:04.432Z,36.85
2022-09-12T01:40:32.127Z,36.69
2022-09-12T01:42:01.020Z,36.61
2022-09-12T01:43:07.499Z,36.91
2022-09-12T01:44:15.565Z,36.86
2022-09-12T01:45:32.308Z,36.47
2022-09-12T01:46:45.792Z,36.47
2022-09-12T01:47:56.556Z,36.85
2022-09-12T01:49:02.523Z,36.37
2022-09-12T01:50:08.142Z,36.43
2022-09-12T01:51:47.369Z,36.61
2022-09-12T01:52:58.841Z,36.63
2022-09-12T01:54:08.652Z,36.32
2022-09-12T01:55:18.045Z,36.81
2022-09-12T01:56:26.480Z,36.46
2022-09-12T01:57:42.158Z,36.57
2022-09-12T01:59:07.249Z,36.64
2022-09-12T02:00:13.182Z,36.35
2022-09-12T02:01:21.789Z,36.65
2022-09-12T02:02:55.784Z,36.58
2022-09-12T02:04:14.043Z,36.61
2022-09-12T02:05:31.758Z,36.74
2022-09-12T02:06:41.979Z,36.80
2022-09-12T02:07:49.906Z,36.35
2022-09-12T02:08:54.905Z,36.71
2022-09-12T02:10:18.080Z,36.84
2022-09-12T02:11:20.732Z,36.69
2022-09-12T02:12:29.596Z,36.79
2022-09-12T02:13:56.827Z,36.75
2022-09-12T02:15:03.971Z,36.59
2022-09-12T02:16:19.413Z,36.43
2022-09-12T02:17:24.434Z,36.75
2022-09-12T02:18:29.070Z,36.43
2022-09-12T02:19:36.828Z,36.53
2022-09-12T02:20:49.083Z,36.35
2022-09-12T02:21:58.161Z,36.85
2022-09-12T02:23:00.839Z,36.41
2022-09-12T02:24:04.957Z,36.45
2022-09-12T02:25:10.480Z,36.46
2022-09-12T02:26:23.584Z,36.73
2022-09-12T02:27:32.177Z,36.44
2022-09-12T02:28:41.559Z,36.75
2022-09-12T02:29:44.941Z,36.83
2022-09-12T02:31:06.410Z,36.94
2022-09-12T02:32:21.303Z,36.77
2022-09-12T02:33:59.989Z,36.50
2022-09-12T02:35:07.223Z,36.88
2022-09-12T02:36:34.678Z,36.66
2022-09-12T02:38:14.671Z,36.95
2022-09-12T02:39:20.137Z,36.60
2022-09-12T02:40:23.022Z,36.83
2022-09-12T02:41:24.965Z,36.82
2022-09-12T02:42:27.129Z,36.82
2022-09-12T02:43:28.806Z,36.54
2022-09-12T02:44:32.040Z,36.46
2022-09-12T02:45:35.736Z,36.62
2022-09-12T02:46:42.974Z,36.48
2022-09-12T02:47:51.852Z,36.89
2022-09-12T02:48:54.397Z,36.82
2022-09-12T02:49:57.340Z,36.73
2022-09-12T02:50:59.045Z,36.51
2022-09-12T02:52:01.699Z,36.68
2022-09-12T02:53:05.654Z,36.45
2022-09-12T02:54:09.296Z,36.63
2022-09-12T02:55:11.841Z,36.55
2022-09-12T02:56:21.604Z,36.60
2022-09-12T02:57:24.034Z,36.73
2022-09-12T02:58:29.177Z,36.45
2022-09-12T02:59:30.782Z,36.76
2022-09-12T03:00:41.895Z,36.79
2022-09-12T03:01:50.208Z,36.85
2022-09-12T03:03:13.372Z,36.81
2022-09-12T03:04:27.164Z,36.72
2022-09-12T03:05:44.518Z,36.39
2022-09-12T03:07:00.308Z,36.74
2022-09-12T03:08:12.166Z,36.82
2022-09-12T03:09:34.293Z,36.39
2022-09-12T03:10:38.797Z,36.29
2022-09-12T03:12:02.311Z,36.76
2022-09-12T03:13:21.930Z,36.43
2022-09-12T03:14:26.613Z,36.35
2022-09-12T03:15:55.589Z,36.75
2022-09-12T03:17:09.058Z,36.51
2022-09-12T03:18:28.901Z,36.00
2022-09-12T03:19:52.252Z,36.64
2022-09-12T03:21:03.419Z,36.82
2022-09-12T03:22:24.587Z,36.91
2022-09-12T03:24:14.260Z,36.13
2022-09-12T03:25:30.043Z,36.32
2022-09-12T03:26:44.632Z,36.29
2022-09-12T03:27:59.132Z,36.54
2022-09-12T03:29:03.411Z,36.45
2022-09-12T03:30:06.448Z,36.71
2022-09-12T03:31:16.300Z,36.81
2022-09-12T03:32:17.817Z,36.58
2022-09-12T03:33:22.036Z,36.26
2022-09-12T03:34:25.681Z,36.57
2022-09-12T03:35:27.196Z,36.12
2022-09-12T03:36:30.684Z,36.28
2022-09-12T03:37:32.215Z,36.33
2022-09-12T03:38:33.738Z,36.49
2022-09-12T03:39:35.389Z,36.70
2022-09-12T03:40:38.015Z,36.77
2022-09-12T03:41:39.666Z,36.76
2022-09-12T03:42:41.703Z,36.90
2022-09-12T03:43:43.238Z,36.81
2022-09-12T03:44:44.772Z,36.53
2022-09-12T03:45:52.274Z,36.72
2022-09-12T03:46:53.877Z,36.28
2022-09-12T03:47:55.457Z,36.52
2022-09-12T03:48:57.151Z,36.52
2022-09-12T03:49:58.698Z,36.63
2022-09-12T03:51:02.074Z,36.14
2022-09-12T03:52:04.561Z,36.30
2022-09-12T03:53:06.064Z,36.40
2022-09-12T03:54:07.576Z,36.34
2022-09-12T03:55:09.818Z,36.27
2022-09-12T03:56:12.463Z,36.69
2022-09-12T03:57:14.036Z,36.33
2022-09-12T03:58:15.607Z,36.57
2022-09-12T03:59:17.125Z,36.33
2022-09-12T04:00:19.948Z,36.71
2022-09-12T04:01:21.871Z,36.15
2022-09-12T04:02:23.555Z,36.15
2022-09-12T04:03:25.216Z,36.33
2022-09-12T04:04:26.888Z,36.11
2022-09-12T04:05:28.422Z,36.64
2022-09-12T04:06:31.160Z,36.19
2022-09-12T04:07:32.680Z,35.81
2022-09-12T04:08:37.794Z,36.30
2022-09-12T04:09:39.894Z,36.17
2022-09-12T04:10:42.108Z,36.25
2022-09-12T04:11:43.667Z,36.84
2022-09-12T04:12:45.600Z,36.64
2022-09-12T04:13:48.256Z,36.71
2022-09-12T04:14:49.969Z,36.69
2022-09-12T04:16:01.079Z,36.78
2022-09-12T04:17:02.889Z,36.46
2022-09-12T04:18:06.113Z,36.27
2022-09-12T04:19:07.833Z,36.40
2022-09-12T04:20:09.619Z,36.24
2022-09-12T04:21:14.426Z,36.52
2022-09-12T04:22:16.012Z,36.19
2022-09-12T04:23:17.646Z,36.14
2022-09-12T04:24:19.339Z,36.35
2022-09-12T04:25:20.888Z,36.64
2022-09-12T04:26:22.730Z,36.66
2022-09-12T04:27:24.291Z,36.85
2022-09-12T04:28:26.984Z,37.30
2022-09-12T04:29:29.496Z,37.56
2022-09-12T04:30:31.205Z,37.37
2022-09-12T04:31:32.732Z,37.42
2022-09-12T04:32:34.451Z,37.01
2022-09-12T04:33:36.823Z,35.96
2022-09-12T04:34:38.378Z,36.67
2022-09-12T04:35:40.028Z,36.65
2022-09-12T04:36:42.111Z,35.96
2022-09-12T04:37:44.247Z,35.78
2022-09-12T04:38:47.500Z,35.67
2022-09-12T04:39:49.774Z,35.30
2022-09-12T04:40:51.351Z,34.72
2022-09-12T04:41:52.899Z,35.78
2022-09-12T04:42:56.056Z,36.01
2022-09-12T04:44:10.504Z,35.76
2022-09-12T04:45:13.050Z,35.67
2022-09-12T04:46:17.429Z,35.51
2022-09-12T04:47:19.172Z,36.17
2022-09-12T04:48:20.806Z,35.40
2022-09-12T04:49:22.405Z,36.24
2022-09-12T04:50:23.958Z,35.87
2022-09-12T04:51:28.382Z,36.07
2022-09-12T04:52:29.916Z,35.84
2022-09-12T04:53:31.476Z,36.18
2022-09-12T04:54:33.686Z,35.66
2022-09-12T04:55:35.637Z,35.75
2022-09-12T04:56:41.669Z,35.52
2022-09-12T04:57:43.529Z,35.19
2022-09-12T04:58:45.642Z,35.30
2022-09-12T04:59:47.224Z,34.85
2022-09-12T05:00:49.017Z,34.66
2022-09-12T05:01:50.634Z,35.84
2022-09-12T05:02:52.255Z,37.84
2022-09-12T05:03:55.180Z,38.25
2022-09-12T05:04:56.715Z,37.21
2022-09-12T05:05:58.227Z,37.06
2022-09-12T05:07:00.089Z,37.36
2022-09-12T05:08:01.812Z,37.33
2022-09-12T05:09:05.905Z,37.25
2022-09-12T05:10:08.110Z,36.36
2022-09-12T05:11:16.148Z,38.82
2022-09-12T05:12:17.758Z,38.85
2022-09-12T05:13:19.294Z,39.11
2022-09-12T05:14:20.859Z,38.39
2022-09-12T05:15:22.396Z,38.50
2022-09-12T05:16:25.542Z,37.92
2022-09-12T05:17:29.635Z,37.19
2022-09-12T05:18:35.507Z,37.61
2022-09-12T05:19:37.136Z,37.18
2022-09-12T05:20:39.017Z,37.68
2022-09-12T05:21:40.576Z,37.14
2022-09-12T05:22:42.163Z,37.02
2022-09-12T05:23:44.082Z,36.24
2022-09-12T05:24:58.246Z,35.53
2022-09-12T05:26:00.806Z,35.68
2022-09-12T05:27:04.716Z,35.35
2022-09-12T05:28:06.248Z,36.01
2022-09-12T05:29:07.860Z,36.47
2022-09-12T05:30:10.240Z,37.26
2022-09-12T05:31:15.216Z,37.15
2022-09-12T05:32:16.797Z,36.90
2022-09-12T05:33:20.968Z,36.42
2022-09-12T05:34:27.923Z,36.38
2022-09-12T05:35:29.463Z,34.81
2022-09-12T05:36:31.471Z,34.45
2022-09-12T05:37:33.077Z,35.66
2022-09-12T05:38:35.640Z,35.92
2022-09-12T05:39:37.246Z,34.55
2022-09-12T05:40:38.822Z,35.87
2022-09-12T05:41:40.472Z,36.39
2022-09-12T05:42:42.013Z,36.54
2022-09-12T05:43:45.181Z,36.20
2022-09-12T05:44:46.791Z,36.07
2022-09-12T05:45:48.441Z,35.55
2022-09-12T05:46:51.409Z,36.09
2022-09-12T05:47:54.311Z,35.03
2022-09-12T05:48:58.329Z,34.93
2022-09-12T05:49:59.860Z,36.09
2022-09-12T05:51:09.141Z,36.71
2022-09-12T05:52:11.055Z,35.78
2022-09-12T05:53:12.581Z,34.88
2022-09-12T05:54:17.925Z,35.06
2022-09-12T05:55:19.536Z,34.52
2022-09-12T05:56:24.662Z,34.11
2022-09-12T05:57:26.330Z,33.83
2022-09-12T05:58:27.848Z,34.11
2022-09-12T05:59:29.397Z,32.78
2022-09-12T06:00:33.567Z,33.48
2022-09-12T06:01:35.863Z,33.82
2022-09-12T06:02:37.497Z,33.78
2022-09-12T06:03:44.670Z,33.25
2022-09-12T06:04:46.415Z,33.74
2022-09-12T06:05:50.644Z,33.51
2022-09-12T06:06:52.581Z,32.91
2022-09-12T06:07:54.099Z,32.95
2022-09-12T06:09:01.083Z,33.41
2022-09-12T06:10:03.661Z,33.91
2022-09-12T06:11:06.937Z,33.89
2022-09-12T06:12:08.755Z,34.42
2022-09-12T06:13:10.275Z,34.15
2022-09-12T06:14:14.290Z,34.49
2022-09-12T06:15:16.621Z,33.92
2022-09-12T06:16:21.045Z,33.68
2022-09-12T06:17:22.703Z,33.87
2022-09-12T06:18:24.218Z,34.38
2022-09-12T06:19:27.769Z,34.83
2022-09-12T06:20:29.390Z,35.04
2022-09-12T06:21:31.366Z,34.98
2022-09-12T06:22:33.009Z,34.83
2022-09-12T06:23:34.909Z,34.08
2022-09-12T06:24:36.494Z,34.09
2022-09-12T06:25:38.273Z,35.01
2022-09-12T06:26:40.049Z,35.15
2022-09-12T06:27:41.561Z,34.02
2022-09-12T06:28:47.603Z,34.00
2022-09-12T06:29:49.257Z,34.69
2022-09-12T06:30:51.047Z,34.93
2022-09-12T06:31:52.643Z,34.19
2022-09-12T06:32:54.136Z,34.90
2022-09-12T06:33:56.896Z,34.19
2022-09-12T06:34:58.538Z,34.51
2022-09-12T06:36:11.561Z,34.29
2022-09-12T06:37:14.035Z,35.04
2022-09-12T06:38:16.711Z,35.09
2022-09-12T06:39:22.570Z,35.47
2022-09-12T06:40:24.195Z,35.36
2022-09-12T06:41:25.943Z,34.61
2022-09-12T06:42:27.437Z,34.86
2022-09-12T06:43:29.622Z,33.66
2022-09-12T06:44:31.679Z,33.92
2022-09-12T06:45:33.224Z,34.79
2022-09-12T06:46:34.739Z,35.41
2022-09-12T06:47:37.421Z,35.65
2022-09-12T06:48:41.916Z,34.90
2022-09-12T06:49:44.034Z,34.93
2022-09-12T06:50:58.865Z,35.24
2022-09-12T06:52:01.035Z,35.24
2022-09-12T06:53:02.554Z,34.93
2022-09-12T06:54:05.468Z,34.98
2022-09-12T06:55:07.383Z,35.06
2022-09-12T06:56:14.792Z,34.75
2022-09-12T06:57:16.335Z,34.71
2022-09-12T06:58:17.858Z,34.85
2022-09-12T06:59:20.016Z,34.44
2022-09-12T07:00:21.628Z,35.08
2022-09-12T07:01:26.773Z,35.01
2022-09-12T07:02:28.402Z,35.21
2022-09-12T07:03:30.624Z,35.20
2022-09-12T07:04:33.766Z,34.92
2022-09-12T07:05:35.333Z,35.29
2022-09-12T07:06:39.935Z,35.34
2022-09-12T07:07:41.580Z,35.81
2022-09-12T07:08:43.361Z,35.62
2022-09-12T07:09:44.932Z,36.13
2022-09-12T07:10:46.549Z,36.17
2022-09-12T07:11:48.097Z,36.10
2022-09-12T07:12:49.613Z,35.41
2022-09-12T07:13:54.094Z,35.35
2022-09-12T07:14:55.723Z,34.93
2022-09-12T07:16:01.206Z,35.16
2022-09-12T07:17:02.780Z,34.95
2022-09-12T07:18:04.426Z,34.84
2022-09-12T07:19:08.360Z,35.02
2022-09-12T07:20:10.109Z,34.84
2022-09-12T07:21:13.962Z,34.74
2022-09-12T07:22:15.485Z,33.78
2022-09-12T07:23:17.100Z,34.17
2022-09-12T07:24:18.647Z,34.25
2022-09-12T07:25:20.212Z,34.96
2022-09-12T07:26:21.763Z,35.14
2022-09-12T07:27:23.364Z,35.25
2022-09-12T07:28:27.232Z,35.16
2022-09-12T07:29:37.732Z,34.89
2022-09-12T07:30:39.690Z,35.20
2022-09-12T07:31:41.274Z,34.73
2022-09-12T07:32:42.780Z,34.34
2022-09-12T07:33:44.793Z,34.67
2022-09-12T07:34:46.477Z,34.27
2022-09-12T07:35:48.098Z,34.38
2022-09-12T07:36:49.668Z,33.99
2022-09-12T07:37:51.174Z,33.77
2022-09-12T07:38:58.256Z,34.48
2022-09-12T07:39:59.933Z,34.09
2022-09-12T07:41:04.748Z,34.60
2022-09-12T07:42:07.083Z,34.64
2022-09-12T07:43:08.962Z,34.52
2022-09-12T07:44:10.476Z,34.54
2022-09-12T07:45:12.927Z,34.56
2022-09-12T07:46:15.043Z,34.94
2022-09-12T07:47:16.603Z,34.94
2022-09-12T07:48:18.108Z,34.16
2022-09-12T07:49:19.613Z,34.22
2022-09-12T07:50:21.353Z,34.91
2022-09-12T07:51:24.133Z,34.96
2022-09-12T07:52:25.705Z,34.77
2022-09-12T07:53:32.112Z,34.41
2022-09-12T07:54:33.958Z,34.18
2022-09-12T07:55:35.527Z,34.16
2022-09-12T07:56:39.351Z,34.78
2022-09-12T07:57:41.159Z,33.93
2022-09-12T07:58:43.680Z,34.31
2022-09-12T07:59:53.524Z,34.66
2022-09-12T08:00:55.114Z,34.04
2022-09-12T08:01:56.681Z,33.91
2022-09-12T08:02:58.220Z,33.87
2022-09-12T08:04:00.643Z,33.47
2022-09-12T08:05:02.563Z,34.07
2022-09-12T08:06:05.162Z,34.10
2022-09-12T08:07:06.733Z,34.33
2022-09-12T08:08:09.889Z,33.81
2022-09-12T08:09:12.908Z,33.96
2022-09-12T08:10:15.550Z,33.77
2022-09-12T08:11:19.057Z,34.35
2022-09-12T08:12:20.651Z,34.23
2022-09-12T08:13:22.183Z,33.94
2022-09-12T08:14:23.792Z,33.49
2022-09-12T08:15:25.363Z,34.04
2022-09-12T08:16:29.687Z,33.88
2022-09-12T08:17:31.258Z,34.09
2022-09-12T08:18:34.502Z,34.49
2022-09-12T08:19:36.082Z,34.65
2022-09-12T08:20:37.590Z,34.35
2022-09-12T08:21:39.201Z,34.12
2022-09-12T08:22:40.791Z,33.72
2022-09-12T08:23:43.287Z,33.87
2022-09-12T08:24:44.886Z,33.46
2022-09-12T08:25:46.421Z,33.60
2022-09-12T08:26:47.996Z,34.05
2022-09-12T08:27:49.587Z,34.04
2022-09-12T08:28:51.605Z,33.21
2022-09-12T08:29:53.769Z,33.56
2022-09-12T08:31:01.139Z,33.76
2022-09-12T08:32:03.367Z,33.78
2022-09-12T08:33:05.007Z,33.63
2022-09-12T08:34:07.099Z,33.36
2022-09-12T08:35:08.883Z,34.22
2022-09-12T08:36:15.048Z,34.52
2022-09-12T08:37:16.549Z,33.94
2022-09-12T08:38:19.664Z,34.05
2022-09-12T08:39:21.901Z,34.52
2022-09-12T08:40:23.483Z,34.54
2022-09-12T08:41:43.626Z,34.56
2022-09-12T08:43:21.769Z,34.54
2022-09-12T08:44:48.460Z,34.69
2022-09-12T08:45:59.199Z,34.47
2022-09-12T08:47:15.804Z,34.03
2022-09-12T08:48:17.896Z,33.99
2022-09-12T08:49:28.367Z,34.13
2022-09-12T08:50:30.188Z,33.77
2022-09-12T08:51:34.725Z,33.91
2022-09-12T08:52:44.057Z,34.29
2022-09-12T08:53:49.136Z,34.07
2022-09-12T08:54:51.069Z,34.44
2022-09-12T08:55:59.891Z,34.19
2022-09-12T08:57:05.776Z,34.74
2022-09-12T08:58:14.686Z,34.67
2022-09-12T08:59:16.625Z,34.53
2022-09-12T09:00:19.630Z,33.70
2022-09-12T09:01:32.866Z,34.48
2022-09-12T09:02:43.359Z,34.07
2022-09-12T09:04:09.444Z,34.43
2022-09-12T09:05:48.712Z,34.93
2022-09-12T09:07:21.166Z,34.45
2022-09-12T09:08:22.850Z,34.33
2022-09-12T09:10:18.071Z,34.71
2022-09-12T09:11:37.992Z,34.62
2022-09-12T09:12:51.669Z,33.90
2022-09-12T09:14:48.146Z,33.50
2022-09-12T09:16:09.041Z,34.42
2022-09-12T09:17:35.964Z,34.17
2022-09-12T09:18:38.467Z,33.83
2022-09-12T09:19:50.939Z,33.52
2022-09-12T09:21:31.697Z,33.80
2022-09-12T09:22:46.116Z,33.72
2022-09-12T09:23:57.516Z,33.87
2022-09-12T09:25:19.683Z,33.98
2022-09-12T09:26:30.508Z,33.30
2022-09-12T09:27:41.943Z,33.47
2022-09-12T09:28:46.643Z,33.60
2022-09-12T09:29:53.004Z,33.85
2022-09-12T09:30:55.302Z,34.07
2022-09-12T09:32:00.366Z,33.57
2022-09-12T09:33:04.854Z,33.44
2022-09-12T09:34:15.840Z,33.06
2022-09-12T09:35:41.448Z,33.16
2022-09-12T09:36:50.765Z,33.22
2022-09-12T09:38:01.848Z,33.10
2022-09-12T09:39:24.634Z,33.16
2022-09-12T09:40:44.877Z,33.23
2022-09-12T09:41:52.446Z,32.95
2022-09-12T09:43:11.453Z,32.88
2022-09-12T09:44:13.328Z,32.70
2022-09-12T09:45:19.509Z,32.55
2022-09-12T09:46:21.156Z,32.17
2022-09-12T09:47:23.054Z,32.07
2022-09-12T09:48:40.967Z,32.63
2022-09-12T09:49:42.784Z,32.77
2022-09-12T09:50:46.156Z,32.55
2022-09-12T09:51:48.263Z,32.67
2022-09-12T09:52:51.721Z,32.97
2022-09-12T09:54:21.235Z,33.38
2022-09-12T09:55:28.193Z,33.59
2022-09-12T09:56:34.070Z,33.84
2022-09-12T09:57:35.534Z,33.87
2022-09-12T09:58:37.351Z,33.74
2022-09-12T09:59:38.860Z,33.96
2022-09-12T10:00:40.786Z,33.66
2022-09-12T10:01:54.981Z,33.25
2022-09-12T10:03:08.203Z,32.99
2022-09-12T10:04:32.690Z,32.51
2022-09-12T10:05:44.870Z,33.03
2022-09-12T10:06:46.636Z,32.90
2022-09-12T10:07:52.460Z,33.46
2022-09-12T10:09:06.444Z,33.35
2022-09-12T10:10:15.617Z,33.32
2022-09-12T10:11:22.832Z,33.22
2022-09-12T10:12:28.527Z,33.86
2022-09-12T10:13:47.948Z,34.20
2022-09-12T10:15:01.082Z,34.03
2022-09-12T10:16:05.975Z,33.86
2022-09-12T10:17:33.165Z,33.97
2022-09-12T10:18:43.634Z,33.52
2022-09-12T10:19:49.828Z,33.08
2022-09-12T10:21:03.582Z,33.56
2022-09-12T10:22:06.822Z,33.65
2022-09-12T10:23:33.760Z,34.09
2022-09-12T10:24:41.733Z,33.68
2022-09-12T10:25:47.844Z,33.89
2022-09-12T10:26:57.173Z,33.57
2022-09-12T10:28:00.940Z,33.63
2022-09-12T10:29:32.243Z,33.87
2022-09-12T10:30:34.336Z,33.51
2022-09-12T10:31:45.116Z,33.47
2022-09-12T10:32:52.565Z,33.30
2022-09-12T10:33:55.785Z,33.12
2022-09-12T10:35:03.078Z,33.10
2022-09-12T10:36:04.681Z,32.96
2022-09-12T10:37:09.149Z,33.10
2022-09-12T10:38:21.456Z,33.10
2022-09-12T10:39:23.908Z,33.13
2022-09-12T10:40:38.930Z,32.83
2022-09-12T10:41:41.405Z,32.75
2022-09-12T10:42:50.644Z,32.94
2022-09-12T10:43:52.201Z,33.24
2022-09-12T10:44:56.769Z,32.59
2022-09-12T10:46:00.439Z,33.26
2022-09-12T10:47:31.312Z,33.40
2022-09-12T10:48:32.957Z,33.03
2022-09-12T10:49:40.310Z,32.25
2022-09-12T10:50:43.300Z,32.44
2022-09-12T10:51:44.910Z,32.78
2022-09-12T10:52:46.486Z,32.54
2022-09-12T10:53:48.168Z,32.86
2022-09-12T10:54:54.407Z,32.85
2022-09-12T10:56:03.015Z,32.64
2022-09-12T10:57:07.176Z,32.39
2022-09-12T10:58:31.993Z,31.74
2022-09-12T10:59:45.384Z,32.59
2022-09-12T11:00:54.230Z,32.36
2022-09-12T11:02:02.592Z,31.96
2022-09-12T11:03:16.311Z,32.34
2022-09-12T11:04:32.978Z,32.36
2022-09-12T11:05:55.237Z,32.84
2022-09-12T11:07:33.794Z,32.90
2022-09-12T11:08:47.568Z,32.58
2022-09-12T11:10:10.164Z,32.45
2022-09-12T11:11:42.907Z,32.64
2022-09-12T11:13:01.859Z,32.67
2022-09-12T11:14:25.224Z,32.10
2022-09-12T11:15:40.073Z,32.51
2022-09-12T11:17:04.838Z,32.37
2022-09-12T11:18:45.125Z,32.10
2022-09-12T11:20:08.468Z,32.12
2022-09-12T11:21:24.335Z,31.66
2022-09-12T11:22:44.535Z,32.04
2022-09-12T11:23:46.105Z,31.54
2022-09-12T11:25:05.697Z,32.02
2022-09-12T11:26:13.878Z,32.24
2022-09-12T11:27:18.099Z,32.32
2022-09-12T11:28:51.816Z,32.09
2022-09-12T11:30:03.179Z,32.10
2022-09-12T11:31:34.262Z,32.34
2022-09-12T11:32:54.455Z,31.99
2022-09-12T11:33:59.562Z,32.68
2022-09-12T11:35:19.564Z,32.45
2022-09-12T11:36:34.154Z,32.89
2022-09-12T11:37:53.538Z,32.75
2022-09-12T11:39:15.313Z,32.80
2022-09-12T11:40:24.411Z,33.43
2022-09-12T11:41:37.800Z,33.61
2022-09-12T11:42:40.431Z,33.48
2022-09-12T11:43:58.999Z,33.61
2022-09-12T11:45:32.731Z,33.47
2022-09-12T11:46:39.528Z,33.37
2022-09-12T11:47:45.165Z,33.73
2022-09-12T11:49:14.978Z,34.38
2022-09-12T11:50:34.722Z,34.05
2022-09-12T11:52:16.001Z,34.17
2022-09-12T11:53:34.111Z,33.85
2022-09-12T11:55:03.924Z,33.50
2022-09-12T11:56:15.688Z,34.05
2022-09-12T11:57:44.004Z,34.02
2022-09-12T11:58:59.587Z,34.01
2022-09-12T12:00:27.709Z,33.46
2022-09-12T12:01:43.867Z,33.30
2022-09-12T12:03:18.093Z,33.10
2022-09-12T12:04:25.951Z,33.23
2022-09-12T12:05:52.079Z,33.19
2022-09-12T12:07:04.746Z,33.44
2022-09-12T12:08:07.997Z,32.75
2022-09-12T12:09:12.367Z,32.89
2022-09-12T12:10:36.161Z,32.57
2022-09-12T12:11:43.028Z,32.98
2022-09-12T12:12:44.696Z,32.54
2022-09-12T12:13:55.105Z,33.11
2022-09-12T12:14:59.107Z,32.56
2022-09-12T12:16:07.244Z,32.19
2022-09-12T12:17:23.260Z,32.34
2022-09-12T12:18:27.243Z,32.76
2022-09-12T12:19:34.274Z,33.31
2022-09-12T12:20:36.383Z,33.05
2022-09-12T12:21:41.515Z,33.05
2022-09-12T12:22:54.411Z,33.08
2022-09-12T12:24:08.112Z,32.89
2022-09-12T12:25:12.384Z,32.44
2022-09-12T12:26:40.080Z,33.22
2022-09-12T12:27:44.895Z,32.33
2022-09-12T12:28:50.607Z,32.52
2022-09-12T12:29:52.160Z,32.64
2022-09-12T12:30:53.640Z,32.74
2022-09-12T12:32:03.853Z,32.84
2022-09-12T12:33:13.189Z,32.61
2022-09-12T12:34:27.622Z,32.69
2022-09-12T12:36:01.457Z,32.96
2022-09-12T12:37:29.695Z,32.69
2022-09-12T12:38:32.490Z,33.18
2022-09-12T12:39:33.989Z,33.22
2022-09-12T12:40:35.606Z,33.81
2022-09-12T12:41:37.126Z,33.77
2022-09-12T12:42:38.622Z,33.50
2022-09-12T12:43:40.150Z,33.19
2022-09-12T12:44:44.728Z,32.87
2022-09-12T12:45:48.712Z,33.04
2022-09-12T12:47:14.015Z,33.05
2022-09-12T12:48:18.153Z,33.13
2022-09-12T12:49:28.419Z,33.12
2022-09-12T12:50:31.068Z,33.17
2022-09-12T12:51:48.492Z,33.34
2022-09-12T12:52:59.932Z,33.29
2022-09-12T12:54:08.688Z,33.93
2022-09-12T12:55:29.014Z,33.40
2022-09-12T12:56:34.976Z,32.96
2022-09-12T12:57:55.652Z,33.57
2022-09-12T12:59:01.361Z,33.63
2022-09-12T13:00:09.678Z,33.92
2022-09-12T13:01:21.398Z,33.77
2022-09-12T13:02:28.796Z,33.41
2022-09-12T13:03:33.077Z,32.99
2022-09-12T13:04:34.850Z,33.17
2022-09-12T13:06:00.449Z,33.59
2022-09-12T13:07:08.887Z,33.47
2022-09-12T13:08:35.383Z,33.52
2022-09-12T13:09:47.488Z,33.64
2022-09-12T13:10:51.651Z,33.35
2022-09-12T13:12:00.846Z,32.81
2022-09-12T13:13:06.780Z,33.27
2022-09-12T13:14:49.010Z,32.98
2022-09-12T13:15:52.295Z,33.67
2022-09-12T13:16:58.728Z,33.29
2022-09-12T13:18:04.273Z,32.90
2022-09-12T13:19:18.341Z,33.37
2022-09-12T13:20:28.934Z,33.85
2022-09-12T13:21:31.152Z,33.66
2022-09-12T13:22:59.189Z,33.82
2022-09-12T13:24:03.527Z,33.44
2022-09-12T13:25:19.807Z,33.28
2022-09-12T13:26:25.237Z,33.34
2022-09-12T13:27:26.846Z,33.58
2022-09-12T13:28:30.655Z,33.27
2022-09-12T13:29:32.176Z,33.49
2022-09-12T13:30:36.797Z,33.29
2022-09-12T13:31:39.442Z,32.98
2022-09-12T13:32:43.708Z,33.48
2022-09-12T13:33:49.873Z,32.91
2022-09-12T13:35:13.016Z,32.81
2022-09-12T13:36:52.665Z,33.47
2022-09-12T13:37:59.966Z,33.23
2022-09-12T13:39:26.136Z,33.96
2022-09-12T13:41:08.989Z,33.86
2022-09-12T13:42:41.004Z,33.79
2022-09-12T13:43:46.824Z,33.75
2022-09-12T13:44:58.925Z,33.36
2022-09-12T13:46:00.637Z,33.30
2022-09-12T13:47:03.698Z,33.11
2022-09-12T13:48:10.155Z,33.26
2022-09-12T13:49:23.036Z,33.18
2022-09-12T13:50:27.920Z,32.62
2022-09-12T13:51:32.342Z,32.78
2022-09-12T13:52:35.927Z,32.97
2022-09-12T13:53:46.348Z,32.61
2022-09-12T13:54:51.538Z,32.77
2022-09-12T13:55:59.292Z,32.75
2022-09-12T13:57:00.862Z,32.93
2022-09-12T13:58:05.184Z,33.41
2022-09-12T13:59:12.825Z,33.14
2022-09-12T14:00:19.584Z,33.25
2022-09-12T14:01:21.647Z,33.05
2022-09-12T14:02:26.523Z,32.92
2022-09-12T14:03:55.667Z,32.92
2022-09-12T14:05:11.962Z,33.30
2022-09-12T14:06:14.102Z,33.30
2022-09-12T14:07:20.374Z,32.80
2022-09-12T14:08:23.826Z,32.94
2022-09-12T14:09:30.121Z,33.00
2022-09-12T14:10:33.699Z,32.93
2022-09-12T14:11:38.280Z,33.31
2022-09-12T14:12:43.470Z,33.28
2022-09-12T14:13:46.082Z,33.18
2022-09-12T14:14:50.303Z,33.00
2022-09-12T14:15:54.861Z,32.75
2022-09-12T14:16:56.589Z,33.07
2022-09-12T14:18:01.440Z,32.82
2022-09-12T14:19:03.139Z,33.04
2022-09-12T14:20:14.095Z,33.01
2022-09-12T14:21:35.539Z,32.76
2022-09-12T14:22:38.834Z,32.43
2022-09-12T14:23:43.153Z,32.71
2022-09-12T14:24:52.552Z,32.36
2022-09-12T14:25:56.304Z,32.35
2022-09-12T14:26:58.864Z,32.78
2022-09-12T14:28:01.113Z,32.34
2022-09-12T14:29:06.656Z,32.75
2022-09-12T14:30:19.160Z,32.00
2022-09-12T14:31:29.456Z,32.58
2022-09-12T14:32:31.014Z,32.29
2022-09-12T14:33:46.686Z,32.20